Time;durP1;ratioP1;P1;durP2;ratioP2;P2;SDS_P1;SDS_P2;PMS_P1;PMS_P2;Temp;Humidity;BMP_temperature;BMP_pressure;BME280_temperature;BME280_humidity;BME280_pressure;Samples;Min_cycle;Max_cycle;Signal;HPM_P1;HPM_P2
2022/07/21 00:01:56;;;;;;;0.10;0.10;;;;;;;;;;6193570;23;20472;-92
2022/07/21 00:04:22;;;;;;;0.10;0.10;;;;;;;;;;6218380;23;20389;-92
2022/07/21 00:06:49;;;;;;;0.10;0.10;;;;;;;;;;6220351;23;20018;-93
2022/07/21 00:09:15;;;;;;;0.10;0.10;;;;;;;;;;6218464;23;20524;-93
2022/07/21 00:11:42;;;;;;;0.10;0.10;;;;;;;;;;6218544;23;20012;-95
2022/07/21 00:14:08;;;;;;;0.10;0.10;;;;;;;;;;6193326;23;20497;-94
2022/07/21 00:16:34;;;;;;;0.10;0.10;;;;;;;;;;6193324;23;20338;-96
2022/07/21 00:19:00;;;;;;;0.10;0.10;;;;;;;;;;6194000;23;20016;-95
2022/07/21 00:21:27;;;;;;;0.10;0.10;;;;;;;;;;6195020;23;20083;-94
2022/07/21 00:23:53;;;;;;;0.10;0.10;;;;;;;;;;6195913;23;20048;-91
2022/07/21 00:26:19;;;;;;;0.10;0.10;;;;;;;;;;6195138;23;20406;-93
2022/07/21 00:28:45;;;;;;;0.10;0.10;;;;;;;;;;6220227;23;20559;-92
2022/07/21 00:31:11;;;;;;;0.10;0.10;;;;;;;;;;6198130;23;20012;-92
2022/07/21 00:33:37;;;;;;;0.10;0.10;;;;;;;;;;6195284;23;20058;-91
2022/07/21 00:36:04;;;;;;;0.15;0.15;;;;;;;;;;6220968;23;20024;-93
2022/07/21 00:38:31;;;;;;;0.10;0.10;;;;;;;;;;6195212;23;20016;-94
2022/07/21 00:40:58;;;;;;;0.10;0.10;;;;;;;;;;6220011;23;20091;-93
2022/07/21 00:43:24;;;;;;;0.10;0.10;;;;;;;;;;6195003;23;20020;-93
2022/07/21 00:45:52;;;;;;;0.10;0.10;;;;;;;;;;6195003;23;20350;-92
2022/07/21 00:48:18;;;;;;;0.10;0.10;;;;;;;;;;6195065;23;20016;-94
2022/07/21 00:50:44;;;;;;;0.10;0.10;;;;;;;;;;6194616;23;20012;-92
2022/07/21 00:53:10;;;;;;;0.10;0.10;;;;;;;;;;6194973;23;20015;-93
2022/07/21 00:55:36;;;;;;;0.10;0.10;;;;;;;;;;6220129;23;20054;-91
2022/07/21 00:58:02;;;;;;;0.10;0.10;;;;;;;;;;6195032;23;20075;-92
2022/07/21 01:00:30;;;;;;;0.10;0.10;;;;;;;;;;6219867;23;20016;-90
2022/07/21 01:02:56;;;;;;;0.10;0.10;;;;;;;;;;6194848;23;20058;-91
2022/07/21 01:05:22;;;;;;;0.10;0.10;;;;;;;;;;6194684;23;20023;-91
2022/07/21 01:07:49;;;;;;;0.10;0.10;;;;;;;;;;6194792;23;20016;-91
2022/07/21 01:10:15;;;;;;;0.10;0.10;;;;;;;;;;6194407;23;20016;-92
2022/07/21 01:12:41;;;;;;;0.10;0.10;;;;;;;;;;6194401;23;20012;-90
2022/07/21 01:15:08;;;;;;;0.10;0.10;;;;;;;;;;6194448;23;20008;-89
2022/07/21 01:17:34;;;;;;;0.10;0.10;;;;;;;;;;6194603;23;20012;-89
2022/07/21 01:20:03;;;;;;;0.10;0.10;;;;;;;;;;6194438;23;20012;-91
2022/07/21 01:22:29;;;;;;;0.10;0.10;;;;;;;;;;6219624;23;20012;-90
2022/07/21 01:24:55;;;;;;;0.10;0.10;;;;;;;;;;6219682;23;20074;-91
2022/07/21 01:27:24;;;;;;;0.10;0.10;;;;;;;;;;6219456;23;20012;-91
2022/07/21 01:29:50;;;;;;;0.10;0.10;;;;;;;;;;6219020;23;20091;-92
2022/07/21 01:32:16;;;;;;;0.10;0.10;;;;;;;;;;6193950;23;20054;-92
2022/07/21 01:34:42;;;;;;;0.10;0.10;;;;;;;;;;6194235;23;20012;-91
2022/07/21 01:37:08;;;;;;;0.10;0.10;;;;;;;;;;6219596;23;20333;-92
2022/07/21 01:42:19;;;;;;;0.17;0.17;;;;;;;;;;6223355;23;20069;-93
2022/07/21 01:44:45;;;;;;;0.10;0.10;;;;;;;;;;6219677;23;20019;-92
2022/07/21 01:47:11;;;;;;;0.57;0.20;;;;;;;;;;6194771;23;20008;-93
2022/07/21 01:49:37;;;;;;;0.10;0.10;;;;;;;;;;6194546;23;20051;-94
2022/07/21 01:52:03;;;;;;;0.10;0.10;;;;;;;;;;6194311;23;20066;-94
2022/07/21 01:54:29;;;;;;;0.10;0.10;;;;;;;;;;6222704;23;20233;-94
2022/07/21 01:56:55;;;;;;;0.10;0.10;;;;;;;;;;6194514;23;20083;-95
2022/07/21 01:59:21;;;;;;;0.10;0.10;;;;;;;;;;6219390;23;20019;-93
2022/07/21 02:01:47;;;;;;;0.10;0.10;;;;;;;;;;6219919;23;20279;-94
2022/07/21 02:04:15;;;;;;;0.10;0.10;;;;;;;;;;6194472;23;20016;-94
2022/07/21 02:06:41;;;;;;;0.10;0.10;;;;;;;;;;6195210;23;20034;-96
2022/07/21 02:09:08;;;;;;;0.10;0.10;;;;;;;;;;6244666;23;20027;-93
2022/07/21 02:11:34;;;;;;;0.10;0.10;;;;;;;;;;6194282;23;20008;-93
2022/07/21 02:14:01;;;;;;;0.10;0.10;;;;;;;;;;6194145;23;20338;-94
2022/07/21 02:16:27;;;;;;;0.10;0.10;;;;;;;;;;6219946;23;20437;-93
2022/07/21 02:18:53;;;;;;;0.20;0.20;;;;;;;;;;6194309;23;20556;-94
2022/07/21 02:21:19;;;;;;;0.10;0.10;;;;;;;;;;6194415;23;20465;-94
2022/07/21 02:23:45;;;;;;;0.10;0.10;;;;;;;;;;6194324;23;20016;-94
2022/07/21 02:26:11;;;;;;;0.15;0.15;;;;;;;;;;6194342;23;20086;-92
2022/07/21 02:28:37;;;;;;;0.10;0.10;;;;;;;;;;6193950;23;20081;-92
2022/07/21 02:31:03;;;;;;;0.20;0.20;;;;;;;;;;6194399;23;20009;-93
2022/07/21 02:33:29;;;;;;;0.10;0.10;;;;;;;;;;6219061;23;20021;-93
2022/07/21 02:35:58;;;;;;;0.10;0.10;;;;;;;;;;6195085;23;20064;-93
2022/07/21 02:38:24;;;;;;;0.10;0.10;;;;;;;;;;6193946;23;20012;-92
2022/07/21 02:40:50;;;;;;;0.10;0.10;;;;;;;;;;6194110;23;20044;-94
2022/07/21 02:43:16;;;;;;;0.10;0.10;;;;;;;;;;6193992;23;20023;-93
2022/07/21 02:45:43;;;;;;;0.25;0.25;;;;;;;;;;6194637;23;20047;-93
2022/07/21 02:48:10;;;;;;;0.17;0.17;;;;;;;;;;6194128;23;20047;-94
2022/07/21 02:50:38;;;;;;;0.20;0.20;;;;;;;;;;6193741;23;20023;-94
2022/07/21 02:53:05;;;;;;;0.10;0.10;;;;;;;;;;6194188;23;20019;-95
2022/07/21 02:55:31;;;;;;;0.38;0.20;;;;;;;;;;6193797;23;20083;-91
2022/07/21 02:58:24;;;;;;;0.10;0.10;;;;;;;;;;6194285;23;20040;-93
2022/07/21 03:00:57;;;;;;;2.33;2.05;;;;;;;;;;6215695;23;20047;-93
2022/07/21 03:03:23;;;;;;;0.10;0.10;;;;;;;;;;6194122;23;20016;-93
2022/07/21 03:05:52;;;;;;;0.10;0.10;;;;;;;;;;6194247;23;20267;-94
2022/07/21 03:08:20;;;;;;;0.10;0.10;;;;;;;;;;6193432;23;20473;-93
2022/07/21 03:10:46;;;;;;;0.10;0.10;;;;;;;;;;6193726;23;20493;-90
2022/07/21 03:13:12;;;;;;;0.10;0.10;;;;;;;;;;6193480;23;20008;-89
2022/07/21 03:15:38;;;;;;;0.57;0.30;;;;;;;;;;6218132;23;20087;-90
2022/07/21 03:18:04;;;;;;;0.10;0.10;;;;;;;;;;6218024;23;20051;-91
2022/07/21 03:20:31;;;;;;;0.10;0.10;;;;;;;;;;6193257;23;20015;-90
2022/07/21 03:22:57;;;;;;;0.10;0.10;;;;;;;;;;6193340;23;20070;-89
2022/07/21 03:25:23;;;;;;;0.10;0.10;;;;;;;;;;6193390;23;20042;-91
2022/07/21 03:27:49;;;;;;;0.10;0.10;;;;;;;;;;6218460;23;20065;-92
2022/07/21 03:30:16;;;;;;;0.10;0.10;;;;;;;;;;6193040;23;20054;-92
2022/07/21 03:32:42;;;;;;;0.10;0.10;;;;;;;;;;6218618;23;20536;-91
2022/07/21 03:35:10;;;;;;;0.10;0.10;;;;;;;;;;6193930;23;20012;-92
2022/07/21 03:37:52;;;;;;;0.10;0.10;;;;;;;;;;6218722;23;20475;-90
2022/07/21 03:40:19;;;;;;;0.10;0.10;;;;;;;;;;6218419;23;20083;-89
2022/07/21 03:42:45;;;;;;;0.10;0.10;;;;;;;;;;6193886;23;20027;-91
2022/07/21 03:45:12;;;;;;;0.10;0.10;;;;;;;;;;6221572;23;20013;-91
2022/07/21 03:47:38;;;;;;;0.10;0.10;;;;;;;;;;6197050;23;20453;-91
2022/07/21 03:50:05;;;;;;;0.10;0.10;;;;;;;;;;6196402;23;20012;-93
2022/07/21 03:52:31;;;;;;;0.10;0.10;;;;;;;;;;6221841;23;20043;-94
2022/07/21 03:55:09;;;;;;;0.10;0.10;;;;;;;;;;6196904;23;20437;-92
2022/07/21 03:57:48;;;;;;;0.10;0.10;;;;;;;;;;6199047;23;20091;-92
2022/07/21 04:00:16;;;;;;;0.10;0.10;;;;;;;;;;6193692;23;20016;-92
2022/07/21 04:02:42;;;;;;;0.10;0.10;;;;;;;;;;6194582;23;20467;-92
2022/07/21 04:05:10;;;;;;;0.10;0.10;;;;;;;;;;6193938;23;20078;-92
2022/07/21 04:07:36;;;;;;;0.10;0.10;;;;;;;;;;6218941;23;20016;-90
2022/07/21 04:10:06;;;;;;;0.20;0.20;;;;;;;;;;6198423;23;20010;-95
2022/07/21 04:12:32;;;;;;;0.10;0.10;;;;;;;;;;6193920;23;20012;-93
2022/07/21 04:14:58;;;;;;;0.10;0.10;;;;;;;;;;6193562;23;20008;-93
2022/07/21 04:17:25;;;;;;;0.10;0.10;;;;;;;;;;6193569;23;20008;-94
2022/07/21 04:19:52;;;;;;;0.10;0.10;;;;;;;;;;6218449;23;20012;-93
2022/07/21 04:22:19;;;;;;;0.10;0.10;;;;;;;;;;6218290;23;20023;-93
2022/07/21 04:24:45;;;;;;;0.10;0.10;;;;;;;;;;6193221;23;20353;-93
2022/07/21 04:27:11;;;;;;;0.10;0.10;;;;;;;;;;6218180;23;20019;-92
2022/07/21 04:29:37;;;;;;;0.10;0.10;;;;;;;;;;6192858;23;20046;-92
2022/07/21 04:32:03;;;;;;;0.10;0.10;;;;;;;;;;6193122;23;20323;-93
2022/07/21 04:34:29;;;;;;;0.10;0.10;;;;;;;;;;6193170;23;20043;-93
2022/07/21 04:36:56;;;;;;;0.20;0.20;;;;;;;;;;6193604;23;20070;-93
2022/07/21 04:39:22;;;;;;;0.10;0.10;;;;;;;;;;6193815;23;20031;-93
2022/07/21 04:41:48;;;;;;;0.10;0.10;;;;;;;;;;6218779;23;20011;-90
2022/07/21 04:44:14;;;;;;;0.10;0.10;;;;;;;;;;6217885;23;20070;-91
2022/07/21 04:46:43;;;;;;;0.10;0.10;;;;;;;;;;6217947;23;20346;-93
2022/07/21 04:49:12;;;;;;;0.25;0.15;;;;;;;;;;6222130;23;20043;-94
2022/07/21 04:51:38;;;;;;;0.10;0.10;;;;;;;;;;6196154;23;20017;-91
2022/07/21 04:54:04;;;;;;;0.10;0.10;;;;;;;;;;6196784;23;20012;-94
2022/07/21 04:56:31;;;;;;;0.10;0.10;;;;;;;;;;6203833;23;20008;-93
2022/07/21 04:58:59;;;;;;;0.10;0.10;;;;;;;;;;6204807;23;20141;-94
2022/07/21 05:01:26;;;;;;;0.10;0.10;;;;;;;;;;6227327;23;20020;-95
2022/07/21 05:03:52;;;;;;;0.10;0.10;;;;;;;;;;6225743;23;20016;-95
2022/07/21 05:06:19;;;;;;;0.52;0.10;;;;;;;;;;6254810;23;20016;-95
2022/07/21 05:08:47;;;;;;;0.10;0.10;;;;;;;;;;6196458;23;20015;-93
2022/07/21 05:11:13;;;;;;;0.15;0.15;;;;;;;;;;6196618;23;20368;-94
2022/07/21 05:13:39;;;;;;;0.10;0.10;;;;;;;;;;6196157;23;20012;-93
2022/07/21 05:16:05;;;;;;;0.10;0.10;;;;;;;;;;6196037;23;20016;-95
2022/07/21 05:18:31;;;;;;;0.10;0.10;;;;;;;;;;6196903;23;20012;-94
2022/07/21 05:20:58;;;;;;;0.10;0.10;;;;;;;;;;6195621;23;20032;-94
2022/07/21 05:23:24;;;;;;;0.10;0.10;;;;;;;;;;6195930;23;20044;-93
2022/07/21 05:25:50;;;;;;;0.10;0.10;;;;;;;;;;6196303;23;20016;-93
2022/07/21 05:28:19;;;;;;;0.10;0.10;;;;;;;;;;6195349;23;20337;-93
2022/07/21 05:30:45;;;;;;;0.10;0.10;;;;;;;;;;6221146;23;20027;-94
2022/07/21 05:33:11;;;;;;;0.10;0.10;;;;;;;;;;6194964;23;20012;-93
2022/07/21 05:35:37;;;;;;;0.10;0.10;;;;;;;;;;6195181;23;20035;-93
2022/07/21 05:38:03;;;;;;;0.10;0.10;;;;;;;;;;6220649;23;20012;-92
2022/07/21 05:40:29;;;;;;;0.20;0.20;;;;;;;;;;6195285;23;20016;-91
2022/07/21 05:42:55;;;;;;;0.10;0.10;;;;;;;;;;6195315;23;20098;-92
2022/07/21 05:45:21;;;;;;;0.10;0.10;;;;;;;;;;6195448;23;20043;-93
2022/07/21 05:47:47;;;;;;;0.10;0.10;;;;;;;;;;6194901;23;20012;-93
2022/07/21 05:50:13;;;;;;;0.10;0.10;;;;;;;;;;6194394;23;20476;-93
2022/07/21 05:52:39;;;;;;;0.20;0.20;;;;;;;;;;6194663;23;20027;-93
2022/07/21 05:55:06;;;;;;;0.10;0.10;;;;;;;;;;6194784;23;20012;-95
2022/07/21 05:57:32;;;;;;;0.20;0.10;;;;;;;;;;6220341;23;20018;-94
2022/07/21 06:00:01;;;;;;;0.10;0.10;;;;;;;;;;6196198;23;20012;-94
2022/07/21 06:02:30;;;;;;;0.10;0.10;;;;;;;;;;6194280;23;20023;-93
2022/07/21 06:04:56;;;;;;;0.10;0.10;;;;;;;;;;6195279;23;20016;-92
2022/07/21 06:07:22;;;;;;;0.10;0.10;;;;;;;;;;6194929;23;20019;-92
2022/07/21 06:09:48;;;;;;;0.10;0.10;;;;;;;;;;6194423;23;20097;-92
2022/07/21 06:12:16;;;;;;;0.10;0.10;;;;;;;;;;6195103;23;20227;-93
2022/07/21 06:14:42;;;;;;;0.52;0.52;;;;;;;;;;6194660;23;20016;-92
2022/07/21 06:17:10;;;;;;;0.20;0.20;;;;;;;;;;6194998;23;20027;-95
2022/07/21 06:19:41;;;;;;;0.10;0.10;;;;;;;;;;6195751;23;20441;-95
2022/07/21 06:22:13;;;;;;;0.10;0.10;;;;;;;;;;6226246;23;20091;-94
2022/07/21 06:24:39;;;;;;;0.10;0.10;;;;;;;;;;6197458;23;20065;-89
2022/07/21 06:27:05;;;;;;;0.17;0.17;;;;;;;;;;6194696;23;20051;-89
2022/07/21 06:29:31;;;;;;;0.20;0.20;;;;;;;;;;6193602;23;20008;-89
2022/07/21 06:31:57;;;;;;;0.10;0.10;;;;;;;;;;6218882;23;20008;-89
2022/07/21 06:34:23;;;;;;;0.10;0.10;;;;;;;;;;6220293;23;20042;-94
2022/07/21 06:36:53;;;;;;;0.10;0.10;;;;;;;;;;6196996;23;20008;-96
2022/07/21 06:39:22;;;;;;;0.10;0.10;;;;;;;;;;6197654;23;20083;-94
2022/07/21 06:41:51;;;;;;;0.10;0.10;;;;;;;;;;6189733;23;20027;-95
2022/07/21 06:44:17;;;;;;;0.10;0.10;;;;;;;;;;6190382;23;20016;-93
2022/07/21 06:46:43;;;;;;;0.10;0.10;;;;;;;;;;6188117;23;20020;-92
2022/07/21 06:49:09;;;;;;;0.10;0.10;;;;;;;;;;6182941;23;20103;-90
2022/07/21 06:51:35;;;;;;;0.20;0.20;;;;;;;;;;6183838;23;20048;-91
2022/07/21 06:54:01;;;;;;;0.10;0.10;;;;;;;;;;6159245;23;20024;-92
2022/07/21 06:56:27;;;;;;;0.10;0.10;;;;;;;;;;6157979;23;20017;-91
2022/07/21 06:58:56;;;;;;;0.10;0.10;;;;;;;;;;6159279;23;20020;-90
2022/07/21 07:01:22;;;;;;;0.20;0.20;;;;;;;;;;6159280;23;20009;-91
2022/07/21 07:03:48;;;;;;;0.10;0.10;;;;;;;;;;6158703;23;20533;-91
2022/07/21 07:06:14;;;;;;;0.20;0.20;;;;;;;;;;6158423;23;20009;-90
2022/07/21 07:08:42;;;;;;;0.10;0.10;;;;;;;;;;6158624;23;20010;-89
2022/07/21 07:11:08;;;;;;;0.10;0.10;;;;;;;;;;6182887;23;20324;-91
2022/07/21 07:13:34;;;;;;;0.10;0.10;;;;;;;;;;6158868;23;20051;-93
2022/07/21 07:16:00;;;;;;;0.10;0.10;;;;;;;;;;6158659;23;20009;-92
2022/07/21 07:18:26;;;;;;;0.10;0.10;;;;;;;;;;6158730;23;20025;-92
2022/07/21 07:20:52;;;;;;;0.10;0.10;;;;;;;;;;6158733;23;20020;-92
2022/07/21 07:23:18;;;;;;;0.10;0.10;;;;;;;;;;6158536;23;20075;-89
2022/07/21 07:25:44;;;;;;;0.10;0.10;;;;;;;;;;6158182;23;20012;-90
2022/07/21 07:28:10;;;;;;;0.10;0.10;;;;;;;;;;6158335;23;20382;-90
2022/07/21 07:30:36;;;;;;;0.10;0.10;;;;;;;;;;6157744;23;20024;-90
2022/07/21 07:33:02;;;;;;;0.35;0.30;;;;;;;;;;6182894;23;20017;-88
2022/07/21 07:35:28;;;;;;;0.10;0.10;;;;;;;;;;6158291;23;20032;-90
2022/07/21 07:37:54;;;;;;;0.10;0.10;;;;;;;;;;6158428;23;20312;-89
2022/07/21 07:40:21;;;;;;;0.10;0.10;;;;;;;;;;6158288;23;20021;-91
2022/07/21 07:42:51;;;;;;;0.10;0.10;;;;;;;;;;6159094;23;20017;-94
2022/07/21 07:45:17;;;;;;;0.10;0.10;;;;;;;;;;6159389;23;20017;-88
2022/07/21 07:47:43;;;;;;;0.10;0.10;;;;;;;;;;6157123;23;20506;-89
2022/07/21 07:50:10;;;;;;;0.10;0.10;;;;;;;;;;6160435;23;20017;-87
2022/07/21 07:52:36;;;;;;;0.10;0.10;;;;;;;;;;6182811;23;20032;-86
2022/07/21 07:55:06;;;;;;;0.20;0.20;;;;;;;;;;6158022;23;20009;-86
2022/07/21 07:57:32;;;;;;;0.10;0.10;;;;;;;;;;6158964;23;20031;-87
2022/07/21 07:59:58;;;;;;;0.10;0.10;;;;;;;;;;6182823;23;20498;-90
2022/07/21 08:02:24;;;;;;;0.10;0.10;;;;;;;;;;6158235;23;20066;-89
2022/07/21 08:04:50;;;;;;;0.10;0.10;;;;;;;;;;6158387;23;20016;-86
2022/07/21 08:07:16;;;;;;;0.10;0.10;;;;;;;;;;6157721;23;20013;-86
2022/07/21 08:09:42;;;;;;;0.10;0.10;;;;;;;;;;6182524;23;20021;-86
2022/07/21 08:12:08;;;;;;;0.10;0.10;;;;;;;;;;6157907;23;20024;-87
2022/07/21 08:14:34;;;;;;;0.57;0.57;;;;;;;;;;6158238;23;20386;-87
2022/07/21 08:17:00;;;;;;;0.10;0.10;;;;;;;;;;6158257;23;20044;-90
2022/07/21 08:19:27;;;;;;;0.10;0.10;;;;;;;;;;6182889;23;20332;-86
2022/07/21 08:21:53;;;;;;;0.10;0.10;;;;;;;;;;6157776;23;20017;-86
2022/07/21 08:24:19;;;;;;;0.10;0.10;;;;;;;;;;6182972;23;20013;-87
2022/07/21 08:26:45;;;;;;;0.20;0.20;;;;;;;;;;6182484;23;20019;-88
2022/07/21 08:29:11;;;;;;;0.10;0.10;;;;;;;;;;6157848;23;20013;-88
2022/07/21 08:31:37;;;;;;;0.20;0.20;;;;;;;;;;6182616;23;20335;-90
2022/07/21 08:34:03;;;;;;;0.10;0.10;;;;;;;;;;6157916;23;20013;-89
2022/07/21 08:36:29;;;;;;;0.10;0.10;;;;;;;;;;6158403;23;20013;-87
2022/07/21 08:38:55;;;;;;;0.10;0.10;;;;;;;;;;6157746;23;20021;-86
2022/07/21 08:41:21;;;;;;;0.10;0.10;;;;;;;;;;6158596;23;20013;-86
2022/07/21 08:43:49;;;;;;;0.20;0.20;;;;;;;;;;6194505;23;20070;-86
2022/07/21 08:46:15;;;;;;;0.10;0.10;;;;;;;;;;6219559;23;20330;-86
2022/07/21 08:48:41;;;;;;;0.10;0.10;;;;;;;;;;6219481;23;20023;-86
2022/07/21 08:51:07;;;;;;;0.45;0.45;;;;;;;;;;6194427;23;20016;-86
2022/07/21 08:53:33;;;;;;;0.10;0.10;;;;;;;;;;6194705;23;20062;-87
2022/07/21 08:55:59;;;;;;;0.13;0.13;;;;;;;;;;6220190;23;20331;-87
2022/07/21 08:58:25;;;;;;;0.30;0.30;;;;;;;;;;6194725;23;20062;-86
2022/07/21 09:00:51;;;;;;;0.20;0.20;;;;;;;;;;6194631;23;20384;-86
2022/07/21 09:03:18;;;;;;;0.10;0.10;;;;;;;;;;6194610;23;20016;-87
2022/07/21 09:05:59;;;;;;;0.32;0.32;;;;;;;;;;6219363;23;20203;-86
2022/07/21 09:08:29;;;;;;;0.10;0.10;;;;;;;;;;6194693;23;20020;-87
2022/07/21 09:11:07;;;;;;;0.10;0.10;;;;;;;;;;6194581;23;20020;-86
2022/07/21 09:13:33;;;;;;;0.20;0.20;;;;;;;;;;6219560;23;20138;-86
2022/07/21 09:15:59;;;;;;;0.10;0.10;;;;;;;;;;6194677;23;20386;-87
2022/07/21 09:18:25;;;;;;;0.10;0.10;;;;;;;;;;6219200;23;20008;-88
2022/07/21 09:20:52;;;;;;;0.10;0.10;;;;;;;;;;6219255;23;20016;-91
2022/07/21 09:23:20;;;;;;;0.10;0.10;;;;;;;;;;6194805;23;20027;-92
2022/07/21 09:25:47;;;;;;;0.10;0.10;;;;;;;;;;6194627;23;20018;-91
2022/07/21 09:28:20;;;;;;;0.10;0.10;;;;;;;;;;6194234;23;20031;-93
2022/07/21 09:30:57;;;;;;;0.10;0.10;;;;;;;;;;6194668;23;20072;-92
2022/07/21 09:33:26;;;;;;;0.22;0.22;;;;;;;;;;6219371;23;20012;-91
2022/07/21 09:35:53;;;;;;;0.10;0.10;;;;;;;;;;6218674;23;20333;-93
2022/07/21 09:38:19;;;;;;;0.10;0.10;;;;;;;;;;6194175;23;20012;-92
2022/07/21 09:40:48;;;;;;;0.20;0.20;;;;;;;;;;6189086;23;20042;-92
2022/07/21 09:43:47;;;;;;;0.20;0.20;;;;;;;;;;6188916;23;20017;-92
2022/07/21 09:46:23;;;;;;;0.30;0.30;;;;;;;;;;6149858;23;20066;-92
2022/07/21 09:48:50;;;;;;;0.20;0.20;;;;;;;;;;6189362;23;20012;-92
2022/07/21 09:51:37;;;;;;;0.10;0.10;;;;;;;;;;6189376;23;20066;-91
2022/07/21 09:54:04;;;;;;;0.10;0.10;;;;;;;;;;6189259;23;20021;-93
2022/07/21 09:56:42;;;;;;;0.10;0.10;;;;;;;;;;6214376;23;20012;-96
2022/07/21 09:59:09;;;;;;;0.10;0.10;;;;;;;;;;6215098;23;20434;-93
2022/07/21 10:01:36;;;;;;;0.10;0.10;;;;;;;;;;6190623;23;20199;-92
2022/07/21 10:04:02;;;;;;;0.10;0.10;;;;;;;;;;6189797;23;20442;-93
2022/07/21 10:06:29;;;;;;;0.10;0.10;;;;;;;;;;6189145;23;20020;-91
2022/07/21 10:08:56;;;;;;;0.10;0.10;;;;;;;;;;6188613;23;20012;-91
2022/07/21 10:11:22;;;;;;;0.10;0.10;;;;;;;;;;6189350;23;20529;-91
2022/07/21 10:13:51;;;;;;;0.10;0.10;;;;;;;;;;6188958;23;20044;-93
2022/07/21 10:16:17;;;;;;;0.10;0.10;;;;;;;;;;6189474;23;20016;-91
2022/07/21 10:19:15;;;;;;;0.10;0.10;;;;;;;;;;6190917;23;20016;-93
2022/07/21 10:24:54;;;;;;;;;;;;;;;;;;6215439;23;20021;-93
2022/07/21 10:27:21;;;;;;;0.20;0.20;;;;;;;;;;6215565;23;20007;-96
2022/07/21 10:30:10;;;;;;;0.20;0.20;;;;;;;;;;6193033;23;20167;-96
2022/07/21 10:32:39;;;;;;;0.68;0.20;;;;;;;;;;6214631;23;20088;-93
2022/07/21 10:35:23;;;;;;;0.10;0.10;;;;;;;;;;6189452;23;20008;-91
2022/07/21 10:37:49;;;;;;;0.17;0.17;;;;;;;;;;6214091;23;20020;-92
2022/07/21 10:40:18;;;;;;;0.10;0.10;;;;;;;;;;6193325;23;20073;-92
2022/07/21 10:42:45;;;;;;;0.10;0.10;;;;;;;;;;6218469;23;20048;-89
2022/07/21 10:45:29;;;;;;;0.10;0.10;;;;;;;;;;6218474;23;20016;-91
2022/07/21 10:47:55;;;;;;;0.10;0.10;;;;;;;;;;6218124;23;20253;-90
2022/07/21 10:50:31;;;;;;;0.10;0.10;;;;;;;;;;6193262;23;20051;-89
2022/07/21 10:53:01;;;;;;;0.10;0.10;;;;;;;;;;6193568;23;20008;-89
2022/07/21 10:55:30;;;;;;;0.10;0.10;;;;;;;;;;6193600;23;20314;-89
2022/07/21 10:58:13;;;;;;;0.20;0.20;;;;;;;;;;6193468;23;20065;-91
2022/07/21 11:00:39;;;;;;;0.10;0.10;;;;;;;;;;6218453;23;20016;-88
2022/07/21 11:03:18;;;;;;;0.30;0.30;;;;;;;;;;6194050;23;20260;-84
2022/07/21 11:06:03;;;;;;;0.10;0.10;;;;;;;;;;6194338;23;20016;-89
2022/07/21 11:08:36;;;;;;;0.10;0.10;;;;;;;;;;6217972;23;20016;-89
2022/07/21 11:11:10;;;;;;;0.55;0.55;;;;;;;;;;6193146;23;20016;-88
2022/07/21 11:13:55;;;;;;;0.30;0.30;;;;;;;;;;6193305;23;20065;-89
2022/07/21 11:16:21;;;;;;;0.10;0.10;;;;;;;;;;6218096;23;20008;-87
2022/07/21 11:18:47;;;;;;;0.20;0.20;;;;;;;;;;6217853;23;20343;-87
2022/07/21 11:21:13;;;;;;;0.13;0.13;;;;;;;;;;6217926;23;20039;-87
2022/07/21 11:23:44;;;;;;;0.10;0.10;;;;;;;;;;6192963;23;20074;-86
2022/07/21 11:26:10;;;;;;;0.10;0.10;;;;;;;;;;6218386;23;20467;-87
2022/07/21 11:28:36;;;;;;;0.10;0.10;;;;;;;;;;6192974;23;20052;-87
2022/07/21 11:31:09;;;;;;;0.10;0.10;;;;;;;;;;6193018;23;20100;-87
2022/07/21 11:33:39;;;;;;;0.10;0.10;;;;;;;;;;6218008;23;20441;-87
2022/07/21 11:36:06;;;;;;;0.10;0.10;;;;;;;;;;6193223;23;20395;-89
2022/07/21 11:38:32;;;;;;;0.10;0.10;;;;;;;;;;6218363;23;20015;-89
2022/07/21 11:41:18;;;;;;;0.10;0.10;;;;;;;;;;6193272;23;20046;-92
2022/07/21 11:43:44;;;;;;;0.10;0.10;;;;;;;;;;6218365;23;20402;-89
2022/07/21 11:46:10;;;;;;;0.10;0.10;;;;;;;;;;6192985;23;20389;-91
2022/07/21 11:48:36;;;;;;;0.10;0.10;;;;;;;;;;6193182;23;20023;-89
2022/07/21 11:51:04;;;;;;;0.10;0.10;;;;;;;;;;6193373;23;20020;-91
2022/07/21 11:53:30;;;;;;;0.10;0.10;;;;;;;;;;6193371;23;20389;-91
2022/07/21 11:55:56;;;;;;;0.10;0.10;;;;;;;;;;6193307;23;20085;-92
2022/07/21 11:58:22;;;;;;;0.10;0.10;;;;;;;;;;6194117;23;20016;-91
2022/07/21 12:00:48;;;;;;;0.10;0.10;;;;;;;;;;6200175;23;20441;-91
2022/07/21 12:03:15;;;;;;;0.20;0.20;;;;;;;;;;6196318;23;20016;-91
2022/07/21 12:05:41;;;;;;;0.10;0.10;;;;;;;;;;6219429;23;20019;-93
2022/07/21 12:08:07;;;;;;;0.10;0.10;;;;;;;;;;6219085;23;20103;-91
2022/07/21 12:10:34;;;;;;;0.10;0.10;;;;;;;;;;6205168;23;20016;-92
2022/07/21 12:13:01;;;;;;;0.10;0.10;;;;;;;;;;6233963;23;20035;-92
2022/07/21 12:15:34;;;;;;;0.10;0.10;;;;;;;;;;6207955;23;20220;-92
2022/07/21 12:18:04;;;;;;;0.15;0.15;;;;;;;;;;6208132;23;20329;-94
2022/07/21 12:20:44;;;;;;;0.10;0.10;;;;;;;;;;6217359;23;20016;-94
2022/07/21 12:23:40;;;;;;;0.10;0.10;;;;;;;;;;6213769;23;20054;-94
2022/07/21 12:26:20;;;;;;;0.30;0.30;;;;;;;;;;6137005;23;20342;-91
2022/07/21 12:28:52;;;;;;;0.20;0.20;;;;;;;;;;6205965;23;20012;-93
2022/07/21 12:31:21;;;;;;;0.55;0.55;;;;;;;;;;6232367;23;20380;-93
2022/07/21 12:33:51;;;;;;;1.48;0.57;;;;;;;;;;6232780;23;20056;-92
2022/07/21 12:36:17;;;;;;;0.10;0.10;;;;;;;;;;6205285;23;20012;-92
2022/07/21 12:38:47;;;;;;;0.32;0.32;;;;;;;;;;6208075;23;20012;-92
2022/07/21 12:41:14;;;;;;;0.22;0.22;;;;;;;;;;6232599;23;20024;-92
2022/07/21 12:43:40;;;;;;;0.20;0.20;;;;;;;;;;6214126;23;20027;-93
2022/07/21 12:46:10;;;;;;;0.20;0.20;;;;;;;;;;6219791;22;20000;-93
2022/07/21 12:48:36;;;;;;;0.20;0.20;;;;;;;;;;6195358;23;20008;-93
2022/07/21 12:51:10;;;;;;;0.10;0.10;;;;;;;;;;6220897;22;20022;-94
2022/07/21 12:53:52;;;;;;;0.10;0.10;;;;;;;;;;6189189;23;20436;-94
2022/07/21 12:56:21;;;;;;;0.30;0.30;;;;;;;;;;6218396;23;20023;-94
2022/07/21 12:58:47;;;;;;;0.28;0.28;;;;;;;;;;6216614;23;20004;-94
2022/07/21 13:01:15;;;;;;;0.38;0.38;;;;;;;;;;6219309;22;20012;-93
2022/07/21 13:03:41;;;;;;;0.10;0.10;;;;;;;;;;6221165;23;20022;-95
2022/07/21 13:06:07;;;;;;;0.10;0.10;;;;;;;;;;6218867;23;20012;-92
2022/07/21 13:08:34;;;;;;;0.17;0.17;;;;;;;;;;6219026;23;20023;-92
2022/07/21 13:11:33;;;;;;;0.20;0.20;;;;;;;;;;6193780;22;20016;-96
2022/07/21 13:14:03;;;;;;;0.35;0.35;;;;;;;;;;6254588;23;20012;-95
2022/07/21 13:16:44;;;;;;;0.10;0.10;;;;;;;;;;6224019;23;20016;-96
2022/07/21 13:19:10;;;;;;;0.57;0.57;;;;;;;;;;6223376;23;20434;-94
2022/07/21 13:21:36;;;;;;;0.10;0.10;;;;;;;;;;6193226;23;20012;-88
2022/07/21 13:24:02;;;;;;;0.20;0.20;;;;;;;;;;6217644;23;20054;-87
2022/07/21 13:26:28;;;;;;;0.20;0.20;;;;;;;;;;6192514;23;20023;-88
2022/07/21 13:28:54;;;;;;;0.10;0.10;;;;;;;;;;6217008;23;20016;-86
2022/07/21 13:31:21;;;;;;;0.20;0.20;;;;;;;;;;6194630;23;20020;-88
2022/07/21 13:33:47;;;;;;;0.10;0.10;;;;;;;;;;6194408;23;20015;-86
2022/07/21 13:36:13;;;;;;;0.10;0.10;;;;;;;;;;6196290;23;20050;-86
2022/07/21 13:38:39;;;;;;;0.10;0.10;;;;;;;;;;6196491;23;20043;-86
2022/07/21 13:41:05;;;;;;;0.20;0.20;;;;;;;;;;6195422;23;20027;-86
2022/07/21 13:43:31;;;;;;;0.38;0.38;;;;;;;;;;6219746;23;20018;-85
2022/07/21 13:45:57;;;;;;;0.50;0.50;;;;;;;;;;6219829;23;20016;-85
2022/07/21 13:48:23;;;;;;;0.25;0.25;;;;;;;;;;6195056;23;20074;-86
2022/07/21 13:50:49;;;;;;;0.10;0.10;;;;;;;;;;6194106;23;20016;-85
2022/07/21 13:53:15;;;;;;;0.20;0.20;;;;;;;;;;6218902;23;20090;-86
2022/07/21 13:55:41;;;;;;;0.10;0.10;;;;;;;;;;6218975;23;20401;-85
2022/07/21 13:58:08;;;;;;;0.10;0.10;;;;;;;;;;6218494;23;20048;-85
2022/07/21 14:00:34;;;;;;;0.32;0.32;;;;;;;;;;6194136;23;20432;-86
2022/07/21 14:03:00;;;;;;;0.20;0.20;;;;;;;;;;6193765;23;20018;-88
2022/07/21 14:05:26;;;;;;;0.10;0.10;;;;;;;;;;6218508;23;20016;-87
2022/07/21 14:07:52;;;;;;;0.10;0.10;;;;;;;;;;6218823;23;20415;-88
2022/07/21 14:10:18;;;;;;;0.10;0.10;;;;;;;;;;6193508;23;20023;-86
2022/07/21 14:12:44;;;;;;;0.10;0.10;;;;;;;;;;6218363;23;20012;-89
2022/07/21 14:15:10;;;;;;;0.10;0.10;;;;;;;;;;6193917;23;20008;-89
2022/07/21 14:17:36;;;;;;;0.10;0.10;;;;;;;;;;6193702;23;20460;-89
2022/07/21 14:20:02;;;;;;;0.20;0.20;;;;;;;;;;6218491;23;20040;-88
2022/07/21 14:22:29;;;;;;;0.10;0.10;;;;;;;;;;6218309;23;20019;-89
2022/07/21 14:27:53;;;;;;;0.10;0.10;;;;;;;;;;6183435;23;20052;-86
2022/07/21 14:30:20;;;;;;;0.38;0.30;;;;;;;;;;6193531;23;20020;-89
2022/07/21 14:32:46;;;;;;;0.20;0.20;;;;;;;;;;6196464;23;20012;-88
2022/07/21 14:35:14;;;;;;;0.20;0.20;;;;;;;;;;6193115;23;20008;-89
2022/07/21 14:37:40;;;;;;;0.10;0.10;;;;;;;;;;6193556;23;20015;-89
2022/07/21 14:40:08;;;;;;;0.17;0.17;;;;;;;;;;6192590;23;20016;-90
2022/07/21 14:42:34;;;;;;;0.10;0.10;;;;;;;;;;6192921;23;20027;-90
2022/07/21 14:45:00;;;;;;;0.40;0.40;;;;;;;;;;6192841;23;20016;-89
2022/07/21 14:47:26;;;;;;;0.10;0.10;;;;;;;;;;6192587;23;20062;-88
2022/07/21 14:49:52;;;;;;;0.45;0.45;;;;;;;;;;6217352;23;20069;-89
2022/07/21 14:52:18;;;;;;;0.10;0.10;;;;;;;;;;6192490;23;20385;-89
2022/07/21 14:54:44;;;;;;;0.30;0.30;;;;;;;;;;6192691;23;20004;-89
2022/07/21 14:57:10;;;;;;;0.10;0.10;;;;;;;;;;6192556;23;20438;-89